Time;durP1;ratioP1;P1;durP2;ratioP2;P2;SDS_P1;SDS_P2;PMS_P1;PMS_P2;Temp;Humidity;BMP_temperature;BMP_pressure;BME280_temperature;BME280_humidity;BME280_pressure;Samples;Min_cycle;Max_cycle;Signal;HPM_P1;HPM_P2
2023/07/21 00:01:38;;;;;;;5.13;2.40;;;;;;;;;;6273898;22;20170;-91
2023/07/21 00:04:44;;;;;;;6.70;2.67;;;;;;;;;;6275856;22;20154;-90
2023/07/21 00:07:50;;;;;;;8.90;2.53;;;;;;;;;;6276367;22;20169;-90
2023/07/21 00:10:56;;;;;;;7.47;2.40;;;;;;;;;;6275190;22;20161;-90
2023/07/21 00:14:03;;;;;;;3.28;2.15;;;;;;;;;;6275477;22;20170;-91
2023/07/21 00:17:08;;;;;;;6.70;2.28;;;;;;;;;;6273714;22;20165;-91
2023/07/21 00:20:19;;;;;;;7.88;2.45;;;;;;;;;;6275507;22;20180;-91
2023/07/21 00:23:26;;;;;;;7.32;2.88;;;;;;;;;;6274811;22;20197;-92
2023/07/21 00:26:31;;;;;;;6.55;2.78;;;;;;;;;;6274932;22;20210;-91
2023/07/21 00:29:38;;;;;;;7.05;2.70;;;;;;;;;;6272997;22;20165;-89
2023/07/21 00:33:03;;;;;;;10.48;3.33;;;;;;;;;;6274630;22;20166;-91
2023/07/21 00:36:12;;;;;;;5.32;2.92;;;;;;;;;;6274160;22;20174;-91
2023/07/21 00:39:17;;;;;;;6.32;2.80;;;;;;;;;;6273362;22;20205;-88
2023/07/21 00:42:22;;;;;;;10.77;2.88;;;;;;;;;;6274457;22;20165;-89
2023/07/21 00:45:30;;;;;;;6.20;2.67;;;;;;;;;;6277385;22;20213;-88
2023/07/21 00:48:41;;;;;;;7.10;2.67;;;;;;;;;;6275326;22;20170;-88
2023/07/21 00:51:46;;;;;;;6.22;2.65;;;;;;;;;;6276031;22;20166;-89
2023/07/21 00:54:52;;;;;;;8.43;2.58;;;;;;;;;;6274582;22;20216;-89
2023/07/21 00:57:58;;;;;;;4.85;2.20;;;;;;;;;;6274624;22;20174;-88
2023/07/21 01:01:04;;;;;;;6.15;2.78;;;;;;;;;;6280103;22;20165;-92
2023/07/21 01:04:09;;;;;;;6.40;2.88;;;;;;;;;;6275289;22;20173;-92
2023/07/21 01:07:15;;;;;;;8.60;2.60;;;;;;;;;;6271750;22;20170;-92
2023/07/21 01:10:20;;;;;;;5.97;2.38;;;;;;;;;;6272683;22;20154;-89
2023/07/21 01:13:27;;;;;;;7.35;2.30;;;;;;;;;;6274173;22;20162;-91
2023/07/21 01:16:37;;;;;;;10.15;2.72;;;;;;;;;;6274283;22;20240;-90
2023/07/21 01:19:42;;;;;;;3.88;2.30;;;;;;;;;;6274586;22;20217;-89
2023/07/21 01:22:51;;;;;;;2.95;2.15;;;;;;;;;;6272131;22;20622;-88
2023/07/21 01:25:59;;;;;;;7.97;2.17;;;;;;;;;;6273296;22;20216;-89
2023/07/21 01:29:05;;;;;;;6.75;2.90;;;;;;;;;;6272903;22;20162;-89
2023/07/21 01:32:12;;;;;;;6.07;2.05;;;;;;;;;;6273360;22;20632;-90
2023/07/21 01:35:18;;;;;;;3.83;2.30;;;;;;;;;;6274770;22;20166;-90
2023/07/21 01:38:59;;;;;;;4.75;2.17;;;;;;;;;;6273341;22;20154;-88
2023/07/21 01:42:07;;;;;;;5.55;2.40;;;;;;;;;;6275615;22;20161;-89
2023/07/21 01:45:14;;;;;;;6.28;2.80;;;;;;;;;;6275560;22;20178;-90
2023/07/21 01:48:20;;;;;;;8.82;2.35;;;;;;;;;;6272884;22;20218;-91
2023/07/21 01:51:26;;;;;;;5.78;2.05;;;;;;;;;;6273467;22;20166;-89
2023/07/21 01:54:34;;;;;;;3.83;2.38;;;;;;;;;;6274707;22;20184;-90
2023/07/21 01:57:44;;;;;;;6.65;2.50;;;;;;;;;;6274264;22;20166;-90
2023/07/21 02:00:50;;;;;;;12.85;2.63;;;;;;;;;;6274268;22;20178;-90
2023/07/21 02:03:56;;;;;;;6.88;2.70;;;;;;;;;;6273403;22;20168;-89
2023/07/21 02:07:01;;;;;;;9.30;3.15;;;;;;;;;;6273780;22;20179;-90
2023/07/21 02:10:07;;;;;;;8.13;3.03;;;;;;;;;;6274656;22;20169;-90
2023/07/21 02:13:15;;;;;;;6.43;2.88;;;;;;;;;;6272268;22;20165;-90
2023/07/21 02:16:21;;;;;;;5.50;2.70;;;;;;;;;;6272680;22;20146;-89
2023/07/21 02:19:26;;;;;;;12.43;3.10;;;;;;;;;;6272177;22;20239;-90
2023/07/21 02:22:31;;;;;;;7.15;2.90;;;;;;;;;;6272004;22;20438;-89
2023/07/21 02:25:36;;;;;;;6.50;3.17;;;;;;;;;;6272416;22;20162;-88
2023/07/21 02:28:43;;;;;;;5.57;2.65;;;;;;;;;;6271542;22;20602;-91
2023/07/21 02:31:50;;;;;;;7.50;3.63;;;;;;;;;;6270279;22;20161;-87
2023/07/21 02:34:56;;;;;;;4.78;2.80;;;;;;;;;;6271145;22;20169;-90
2023/07/21 02:38:03;;;;;;;5.30;3.03;;;;;;;;;;6270806;22;20166;-90
2023/07/21 02:41:09;;;;;;;8.55;3.25;;;;;;;;;;6271128;22;20174;-88
2023/07/21 02:44:16;;;;;;;8.70;3.80;;;;;;;;;;6272426;22;20170;-90
2023/07/21 02:47:40;;;;;;;10.77;3.20;;;;;;;;;;6270810;22;20165;-91
2023/07/21 02:50:48;;;;;;;9.18;3.30;;;;;;;;;;6272401;22;20154;-92
2023/07/21 02:53:54;;;;;;;7.32;3.20;;;;;;;;;;6270689;22;20170;-92
2023/07/21 02:57:00;;;;;;;6.70;2.88;;;;;;;;;;6273321;22;20150;-92
2023/07/21 03:00:12;;;;;;;4.68;2.78;;;;;;;;;;6270837;22;20189;-90
2023/07/21 03:03:25;;;;;;;3.65;2.60;;;;;;;;;;6271817;22;20169;-92
2023/07/21 03:06:37;;;;;;;9.57;3.00;;;;;;;;;;6271852;22;20166;-91
2023/07/21 03:09:42;;;;;;;14.57;7.63;;;;;;;;;;6271900;22;20281;-89
2023/07/21 03:12:58;;;;;;;5.05;2.85;;;;;;;;;;6271831;22;20609;-91
2023/07/21 03:16:12;;;;;;;6.65;3.08;;;;;;;;;;6274018;22;20166;-91
2023/07/21 03:19:22;;;;;;;4.78;2.90;;;;;;;;;;6271755;22;20656;-90
2023/07/21 03:22:28;;;;;;;4.85;2.60;;;;;;;;;;6273200;22;20207;-90
2023/07/21 03:25:33;;;;;;;6.25;3.03;;;;;;;;;;6273005;22;20158;-92
2023/07/21 03:28:38;;;;;;;5.65;2.75;;;;;;;;;;6272521;22;20229;-90
2023/07/21 03:31:48;;;;;;;4.68;2.90;;;;;;;;;;6273287;22;20236;-90
2023/07/21 03:34:57;;;;;;;10.30;3.13;;;;;;;;;;6273848;22;20616;-90
2023/07/21 03:38:22;;;;;;;5.13;2.60;;;;;;;;;;6273126;22;20616;-90
2023/07/21 03:41:27;;;;;;;4.90;3.15;;;;;;;;;;6274045;22;20165;-90
2023/07/21 03:44:32;;;;;;;6.50;3.13;;;;;;;;;;6273140;22;20216;-90
2023/07/21 03:47:39;;;;;;;5.70;3.10;;;;;;;;;;6274526;22;20185;-90
2023/07/21 03:50:46;;;;;;;6.15;2.67;;;;;;;;;;6275682;22;20166;-92
2023/07/21 03:53:51;;;;;;;5.20;2.72;;;;;;;;;;6273263;22;20162;-89
2023/07/21 03:56:59;;;;;;;5.75;2.45;;;;;;;;;;6272651;22;20165;-88
2023/07/21 04:00:06;;;;;;;10.90;3.00;;;;;;;;;;6271411;22;20205;-90
2023/07/21 04:03:33;;;;;;;8.43;3.08;;;;;;;;;;6291321;22;20170;-90
2023/07/21 04:06:41;;;;;;;6.72;2.70;;;;;;;;;;6272526;22;20189;-91
2023/07/21 04:09:48;;;;;;;6.80;2.75;;;;;;;;;;6270985;22;20173;-89
2023/07/21 04:12:53;;;;;;;7.75;2.90;;;;;;;;;;6272248;22;20222;-90
2023/07/21 04:15:59;;;;;;;5.18;3.03;;;;;;;;;;6271037;22;20170;-90
2023/07/21 04:19:04;;;;;;;6.78;3.15;;;;;;;;;;6271552;22;20271;-93
2023/07/21 04:22:11;;;;;;;7.75;3.45;;;;;;;;;;6271437;22;20208;-90
2023/07/21 04:25:17;;;;;;;8.98;3.03;;;;;;;;;;6269719;22;20162;-91
2023/07/21 04:28:22;;;;;;;7.00;3.22;;;;;;;;;;6270168;22;20170;-90
2023/07/21 04:31:28;;;;;;;9.05;3.53;;;;;;;;;;6271031;22;20165;-88
2023/07/21 04:34:48;;;;;;;7.60;3.50;;;;;;;;;;6272960;22;20660;-91
2023/07/21 04:38:22;;;;;;;5.72;2.85;;;;;;;;;;6272402;22;20288;-91
2023/07/21 04:41:33;;;;;;;7.90;3.13;;;;;;;;;;6275119;22;20216;-90
2023/07/21 04:44:39;;;;;;;5.82;3.22;;;;;;;;;;6275325;22;20166;-90
2023/07/21 04:47:50;;;;;;;8.57;3.25;;;;;;;;;;6276951;22;20217;-88
2023/07/21 04:50:59;;;;;;;7.55;3.15;;;;;;;;;;6277281;22;20153;-92
2023/07/21 04:54:05;;;;;;;12.52;3.45;;;;;;;;;;6278171;22;20342;-89
2023/07/21 04:57:12;;;;;;;8.07;3.75;;;;;;;;;;6276207;22;20235;-91
2023/07/21 05:00:19;;;;;;;8.35;3.70;;;;;;;;;;6278225;22;20197;-88
2023/07/21 05:03:25;;;;;;;8.60;3.78;;;;;;;;;;6278610;22;20174;-91
2023/07/21 05:06:31;;;;;;;6.63;4.10;;;;;;;;;;6280941;22;20162;-92
2023/07/21 05:09:36;;;;;;;6.68;3.38;;;;;;;;;;6278292;22;20169;-88
2023/07/21 05:12:51;;;;;;;8.38;3.90;;;;;;;;;;6280244;22;20146;-90
2023/07/21 05:16:23;;;;;;;9.88;3.90;;;;;;;;;;6276243;22;20184;-91
2023/07/21 05:19:50;;;;;;;7.60;3.80;;;;;;;;;;6294356;22;20210;-91
2023/07/21 05:23:21;;;;;;;6.50;3.55;;;;;;;;;;6279015;22;20255;-92
2023/07/21 05:26:39;;;;;;;5.63;3.97;;;;;;;;;;6276125;22;20210;-91
2023/07/21 05:30:00;;;;;;;6.05;3.45;;;;;;;;;;6276662;22;20242;-93
2023/07/21 05:33:09;;;;;;;10.88;3.65;;;;;;;;;;6277573;22;20173;-90
2023/07/21 05:40:35;;;;;;;9.57;3.38;;;;;;;;;;6296713;22;20234;-90
2023/07/21 05:43:43;;;;;;;9.15;3.55;;;;;;;;;;6278332;22;20211;-89
2023/07/21 05:47:32;;;;;;;7.95;3.42;;;;;;;;;;6295174;22;20165;-90
2023/07/21 05:50:40;;;;;;;8.02;3.33;;;;;;;;;;6278652;22;20515;-89
2023/07/21 05:53:47;;;;;;;7.40;3.33;;;;;;;;;;6277227;22;20659;-89
2023/07/21 05:56:58;;;;;;;5.53;3.70;;;;;;;;;;6275088;22;20170;-90
2023/07/21 06:00:15;;;;;;;6.90;3.10;;;;;;;;;;6276433;22;20193;-88
2023/07/21 06:03:25;;;;;;;5.82;2.90;;;;;;;;;;6276372;22;20225;-91
2023/07/21 06:06:44;;;;;;;10.43;3.33;;;;;;;;;;6276841;22;20166;-89
2023/07/21 06:10:16;;;;;;;6.13;2.83;;;;;;;;;;6289833;22;20162;-88
2023/07/21 06:13:28;;;;;;;4.88;3.13;;;;;;;;;;6276060;22;20177;-90
2023/07/21 06:16:53;;;;;;;4.28;2.85;;;;;;;;;;6273526;22;20162;-88
2023/07/21 06:20:00;;;;;;;5.60;3.30;;;;;;;;;;6273526;22;20210;-93
2023/07/21 06:23:08;;;;;;;5.30;3.08;;;;;;;;;;6273306;22;20181;-89
2023/07/21 06:26:14;;;;;;;4.78;2.80;;;;;;;;;;6275681;22;20150;-90
2023/07/21 06:29:20;;;;;;;6.63;3.00;;;;;;;;;;6276595;22;20170;-92
2023/07/21 06:32:26;;;;;;;9.45;3.17;;;;;;;;;;6275976;22;20227;-90
2023/07/21 06:35:54;;;;;;;9.75;3.20;;;;;;;;;;6295616;22;20165;-90
2023/07/21 06:39:14;;;;;;;7.32;3.13;;;;;;;;;;6274734;22;20170;-91
2023/07/21 06:42:55;;;;;;;12.30;3.50;;;;;;;;;;6149670;22;20196;-92
2023/07/21 06:46:17;;;;;;;7.78;4.25;;;;;;;;;;6275984;22;20281;-90
2023/07/21 06:53:06;;;;;;;9.32;4.18;;;;;;;;;;6277095;22;20609;-91
2023/07/21 06:56:13;;;;;;;8.75;3.25;;;;;;;;;;6276928;22;20182;-91
2023/07/21 06:59:19;;;;;;;10.20;3.08;;;;;;;;;;6276460;22;20165;-90
2023/07/21 07:02:24;;;;;;;11.00;2.53;;;;;;;;;;6278303;22;20169;-91
2023/07/21 07:05:31;;;;;;;7.85;2.60;;;;;;;;;;6278020;22;20169;-92
2023/07/21 07:08:38;;;;;;;7.60;2.72;;;;;;;;;;6276155;22;20238;-91
2023/07/21 07:11:45;;;;;;;3.53;2.08;;;;;;;;;;6277613;22;20253;-92
2023/07/21 07:14:53;;;;;;;5.60;2.50;;;;;;;;;;6277637;22;20170;-90
2023/07/21 07:17:59;;;;;;;5.72;2.47;;;;;;;;;;6278014;22;20205;-91
2023/07/21 07:21:08;;;;;;;5.93;2.30;;;;;;;;;;6301012;22;20193;-89
2023/07/21 07:24:19;;;;;;;5.13;2.60;;;;;;;;;;6297036;22;20169;-91
2023/07/21 07:27:27;;;;;;;6.50;2.72;;;;;;;;;;6276444;22;20221;-91
2023/07/21 07:31:12;;;;;;;5.72;2.40;;;;;;;;;;6275050;22;20157;-90
2023/07/21 07:34:17;;;;;;;9.07;2.70;;;;;;;;;;6276039;22;20276;-91
2023/07/21 07:37:23;;;;;;;4.40;2.50;;;;;;;;;;6276198;22;20235;-91
2023/07/21 07:40:28;;;;;;;8.70;3.65;;;;;;;;;;6276658;22;20236;-91
2023/07/21 07:43:36;;;;;;;7.32;2.58;;;;;;;;;;6276586;22;20170;-91
2023/07/21 07:46:45;;;;;;;9.35;2.20;;;;;;;;;;6273735;22;20212;-91
2023/07/21 07:49:51;;;;;;;5.45;2.60;;;;;;;;;;6275678;22;20161;-94
2023/07/21 07:52:59;;;;;;;6.18;2.38;;;;;;;;;;6274723;22;20357;-92
2023/07/21 07:56:05;;;;;;;5.43;2.42;;;;;;;;;;6275378;22;20158;-92
2023/07/21 14:11:52;;;;;;;4.75;2.45;;;;;;;;;;6220884;22;20243;-90
2023/07/21 14:14:58;;;;;;;5.80;2.00;;;;;;;;;;6265017;22;20165;-91
2023/07/21 14:18:04;;;;;;;3.22;2.10;;;;;;;;;;6244624;23;20207;-91
2023/07/21 14:21:10;;;;;;;3.03;2.05;;;;;;;;;;6246108;22;20240;-90
2023/07/21 14:24:16;;;;;;;4.55;2.13;;;;;;;;;;6244404;22;20165;-89
2023/07/21 14:27:23;;;;;;;4.03;2.17;;;;;;;;;;6243377;23;20166;-88
2023/07/21 14:30:29;;;;;;;3.15;2.00;;;;;;;;;;6244957;22;20154;-89
2023/07/21 14:33:35;;;;;;;9.45;2.42;;;;;;;;;;6243406;22;20162;-92
2023/07/21 14:36:42;;;;;;;8.20;2.30;;;;;;;;;;6244751;22;20154;-89
2023/07/21 14:39:47;;;;;;;6.85;2.47;;;;;;;;;;6244908;22;20670;-90
2023/07/21 14:42:58;;;;;;;5.82;1.80;;;;;;;;;;6250733;22;20182;-87
2023/07/21 14:46:04;;;;;;;4.22;1.40;;;;;;;;;;6253413;22;20158;-90
2023/07/21 14:49:10;;;;;;;4.18;1.50;;;;;;;;;;6245038;22;20277;-88
2023/07/21 14:52:16;;;;;;;1.48;0.98;;;;;;;;;;6243024;22;20150;-90
2023/07/21 14:55:21;;;;;;;2.22;1.17;;;;;;;;;;6245298;23;20215;-87
2023/07/21 14:58:28;;;;;;;4.53;1.27;;;;;;;;;;6243525;23;20324;-90
2023/07/21 15:01:34;;;;;;;1.77;1.00;;;;;;;;;;6244710;23;20653;-89
2023/07/21 15:04:39;;;;;;;5.25;1.30;;;;;;;;;;6244274;23;20233;-89
2023/07/21 15:07:46;;;;;;;2.22;1.40;;;;;;;;;;6244482;22;20213;-88
2023/07/21 15:10:51;;;;;;;2.22;1.38;;;;;;;;;;6243190;22;20170;-90
2023/07/21 15:13:57;;;;;;;2.60;1.30;;;;;;;;;;6245428;23;20201;-91
2023/07/21 15:17:03;;;;;;;2.70;1.50;;;;;;;;;;6242554;23;20213;-91
2023/07/21 15:20:15;;;;;;;7.10;2.08;;;;;;;;;;6241606;23;20166;-89
2023/07/21 15:23:20;;;;;;;5.30;2.10;;;;;;;;;;6261006;22;20222;-90
2023/07/21 15:26:26;;;;;;;4.45;2.20;;;;;;;;;;6243771;22;20166;-91
2023/07/21 15:29:33;;;;;;;14.27;3.92;;;;;;;;;;6241661;23;20158;-91
2023/07/21 15:32:38;;;;;;;17.83;3.80;;;;;;;;;;6241344;23;20174;-90
2023/07/21 15:35:45;;;;;;;8.48;2.67;;;;;;;;;;6240082;23;20594;-91
2023/07/21 15:38:53;;;;;;;5.95;2.63;;;;;;;;;;6240639;22;20328;-92
2023/07/21 15:41:58;;;;;;;7.88;2.53;;;;;;;;;;6242718;22;20202;-90
2023/07/21 15:45:10;;;;;;;6.40;2.67;;;;;;;;;;6243438;23;20218;-92
2023/07/21 15:48:15;;;;;;;8.38;2.90;;;;;;;;;;6242840;22;20182;-89
2023/07/21 15:51:20;;;;;;;6.75;2.60;;;;;;;;;;6241210;23;20170;-90
2023/07/21 15:54:29;;;;;;;10.05;2.70;;;;;;;;;;6246194;23;20168;-89
2023/07/21 15:57:36;;;;;;;4.75;2.10;;;;;;;;;;6244744;22;20252;-90
2023/07/21 16:00:47;;;;;;;6.47;2.25;;;;;;;;;;6243783;23;20239;-89
2023/07/21 16:03:56;;;;;;;4.28;1.73;;;;;;;;;;6245287;23;20182;-89
2023/07/21 16:07:07;;;;;;;7.80;2.58;;;;;;;;;;6242974;22;20177;-90
2023/07/21 16:10:15;;;;;;;3.85;2.13;;;;;;;;;;6246522;22;20571;-90
2023/07/21 16:13:20;;;;;;;7.03;2.35;;;;;;;;;;6259784;22;20205;-90
2023/07/21 16:16:30;;;;;;;4.32;2.30;;;;;;;;;;6264837;22;20153;-91
2023/07/21 16:19:35;;;;;;;4.50;2.00;;;;;;;;;;6263808;22;20193;-89
2023/07/21 16:22:40;;;;;;;3.13;1.98;;;;;;;;;;6263690;22;20684;-91
2023/07/21 16:25:47;;;;;;;5.85;2.40;;;;;;;;;;6267211;22;20294;-89
2023/07/21 16:28:55;;;;;;;4.55;2.17;;;;;;;;;;6264260;22;20239;-92
2023/07/21 22:40:44;;;;;;;5.53;2.85;;;;;;;;;;6209611;22;20522;-91
2023/07/21 22:43:50;;;;;;;5.28;2.30;;;;;;;;;;6246680;22;20162;-92
2023/07/21 22:47:17;;;;;;;8.27;2.85;;;;;;;;;;6244676;23;20167;-92
2023/07/21 22:50:24;;;;;;;5.72;2.20;;;;;;;;;;6246982;22;20239;-92
2023/07/21 22:53:30;;;;;;;7.25;2.60;;;;;;;;;;6246379;23;20580;-89
2023/07/21 22:56:38;;;;;;;11.25;3.42;;;;;;;;;;6245828;23;20166;-92
2023/07/21 22:59:43;;;;;;;11.40;3.30;;;;;;;;;;6244364;23;20175;-92
2023/07/21 23:02:48;;;;;;;7.47;3.38;;;;;;;;;;6243605;22;20178;-93
2023/07/21 23:05:54;;;;;;;5.43;2.60;;;;;;;;;;6243156;22;20190;-93
2023/07/21 23:08:59;;;;;;;5.53;2.53;;;;;;;;;;6240528;23;20206;-89
2023/07/21 23:12:10;;;;;;;8.65;2.40;;;;;;;;;;6241430;23;20178;-91
2023/07/21 23:15:16;;;;;;;6.57;3.05;;;;;;;;;;6241518;23;20217;-92
2023/07/21 23:18:21;;;;;;;7.10;2.22;;;;;;;;;;6242190;22;20154;-91
2023/07/21 23:21:26;;;;;;;4.32;2.40;;;;;;;;;;6244655;22;20189;-92
2023/07/21 23:24:31;;;;;;;9.00;2.35;;;;;;;;;;6246975;23;20186;-90
2023/07/21 23:27:38;;;;;;;5.95;2.20;;;;;;;;;;6244190;23;20253;-92
2023/07/21 23:30:44;;;;;;;7.88;2.38;;;;;;;;;;6243857;23;20170;-90
2023/07/21 23:33:49;;;;;;;5.57;2.53;;;;;;;;;;6244277;23;20154;-92
2023/07/21 23:36:54;;;;;;;6.75;2.30;;;;;;;;;;6245082;22;20173;-92
2023/07/21 23:40:00;;;;;;;8.00;2.63;;;;;;;;;;6243193;22;20162;-93
2023/07/21 23:43:07;;;;;;;6.63;2.35;;;;;;;;;;6243898;22;20198;-91
2023/07/21 23:46:12;;;;;;;7.25;2.30;;;;;;;;;;6243608;23;20249;-91
2023/07/21 23:49:17;;;;;;;8.40;2.40;;;;;;;;;;6244629;23;20186;-90
2023/07/21 23:52:23;;;;;;;7.20;2.05;;;;;;;;;;6245159;22;20154;-92
2023/07/21 23:55:29;;;;;;;7.45;2.05;;;;;;;;;;6245873;22;20166;-91
2023/07/21 23:58:36;;;;;;;8.75;2.00;;;;;;;;;;6246995;22;20194;-92
